createdAt,value
2022-11-05T00:00:30.966Z,80.94
2022-11-05T00:03:15.857Z,81.53
2022-11-05T00:06:04.018Z,80.53
2022-11-05T00:09:02.932Z,80.43
2022-11-05T00:12:01.435Z,80.28
2022-11-05T00:14:46.307Z,80.92
2022-11-05T00:17:12.784Z,80.37
2022-11-05T00:19:39.206Z,80.63
2022-11-05T00:22:24.220Z,80.80
2022-11-05T00:25:09.018Z,80.93
2022-11-05T00:27:35.517Z,80.94
2022-11-05T00:30:01.982Z,79.62
2022-11-05T00:32:28.448Z,78.99
2022-11-05T00:34:55.015Z,80.54
2022-11-05T00:37:21.533Z,80.03
2022-11-05T00:39:47.941Z,80.41
2022-11-05T00:42:32.882Z,80.21
2022-11-05T00:45:02.150Z,81.04
2022-11-05T00:47:48.673Z,80.75
2022-11-05T00:50:15.956Z,81.31
2022-11-05T00:52:58.779Z,80.52
2022-11-05T00:55:33.359Z,81.30
2022-11-05T00:58:00.981Z,80.52
2022-11-05T01:00:30.229Z,80.01
2022-11-05T01:03:05.597Z,81.06
2022-11-05T01:05:34.056Z,81.00
2022-11-05T01:08:01.379Z,81.32
2022-11-05T01:10:28.031Z,81.12
2022-11-05T01:12:54.857Z,80.16
2022-11-05T01:15:21.580Z,81.60
2022-11-05T01:17:48.240Z,81.13
2022-11-05T01:20:14.837Z,80.57
2022-11-05T01:22:41.261Z,79.88
2022-11-05T01:25:08.806Z,80.71
2022-11-05T01:27:36.997Z,81.18
2022-11-05T01:30:05.877Z,81.93
2022-11-05T01:32:32.599Z,82.13
2022-11-05T01:34:59.028Z,82.01
2022-11-05T01:37:25.477Z,81.90
2022-11-05T01:39:51.967Z,81.34
2022-11-05T01:42:22.643Z,81.46
2022-11-05T01:45:00.091Z,81.15
2022-11-05T01:47:32.705Z,80.54
2022-11-05T01:50:05.368Z,81.53
2022-11-05T01:52:34.655Z,81.02
2022-11-05T01:55:02.864Z,81.14
2022-11-05T01:57:30.695Z,80.37
2022-11-05T01:59:59.761Z,80.05
2022-11-05T02:02:26.812Z,81.26
2022-11-05T02:05:00.091Z,80.91
2022-11-05T02:07:28.285Z,80.00
2022-11-05T02:09:57.287Z,80.38
2022-11-05T02:12:24.176Z,80.89
2022-11-05T02:14:50.642Z,81.34
2022-11-05T02:17:26.866Z,80.85
2022-11-05T02:20:23.524Z,79.62
2022-11-05T02:23:02.024Z,80.88
2022-11-05T02:25:34.556Z,80.08
2022-11-05T02:28:19.379Z,80.21
2022-11-05T02:30:53.698Z,80.37
2022-11-05T02:33:43.597Z,81.77
2022-11-05T02:36:38.933Z,81.10
2022-11-05T02:39:17.142Z,81.50
2022-11-05T02:42:09.766Z,80.70
2022-11-05T02:44:47.343Z,80.75
2022-11-05T02:47:19.622Z,81.13
2022-11-05T02:49:58.214Z,80.62
2022-11-05T02:52:32.711Z,81.05
2022-11-05T02:55:11.280Z,80.30
2022-11-05T02:57:37.883Z,81.63
2022-11-05T03:00:08.426Z,80.41
2022-11-05T03:02:35.177Z,79.71
2022-11-05T03:05:02.958Z,79.92
2022-11-05T03:07:49.301Z,79.64
2022-11-05T03:10:31.901Z,80.29
2022-11-05T03:13:09.820Z,80.62
2022-11-05T03:16:02.452Z,81.49
2022-11-05T03:18:42.242Z,79.65
2022-11-05T03:21:47.277Z,80.44
2022-11-05T03:24:24.666Z,81.00
2022-11-05T03:26:54.240Z,80.73
2022-11-05T03:29:31.791Z,81.25
2022-11-05T03:32:01.747Z,80.05
2022-11-05T03:34:33.969Z,80.94
2022-11-05T03:37:02.527Z,80.84
2022-11-05T03:39:37.025Z,80.52
2022-11-05T03:42:06.996Z,81.33
2022-11-05T03:44:39.378Z,79.44
2022-11-05T03:47:11.284Z,80.98
2022-11-05T03:49:49.461Z,79.40
2022-11-05T03:52:19.719Z,80.20
2022-11-05T03:54:46.952Z,79.47
2022-11-05T03:57:17.769Z,80.92
2022-11-05T03:59:46.868Z,80.00
2022-11-05T04:02:15.499Z,79.61
2022-11-05T04:04:42.413Z,79.90
2022-11-05T04:07:28.937Z,79.39
2022-11-05T04:10:14.271Z,80.26
2022-11-05T04:12:59.031Z,80.65
2022-11-05T04:15:25.560Z,80.46
2022-11-05T04:17:51.977Z,79.62
2022-11-05T04:20:36.768Z,80.72
2022-11-05T04:23:25.664Z,79.81
2022-11-05T04:25:52.092Z,79.66
2022-11-05T04:28:19.143Z,80.89
2022-11-05T04:30:45.558Z,80.58
2022-11-05T04:33:17.081Z,80.58
2022-11-05T04:35:48.452Z,80.83
2022-11-05T04:38:19.486Z,80.71
2022-11-05T04:40:48.044Z,80.05
2022-11-05T04:43:18.375Z,81.14
2022-11-05T04:45:45.739Z,80.57
2022-11-05T04:48:12.412Z,80.57
2022-11-05T04:50:39.267Z,80.91
2022-11-05T04:53:05.848Z,81.43
2022-11-05T04:55:32.353Z,81.09
2022-11-05T04:57:58.777Z,80.78
2022-11-05T05:00:25.300Z,81.45
2022-11-05T05:02:51.885Z,81.03
2022-11-05T05:05:18.513Z,79.94
2022-11-05T05:07:44.939Z,81.52
2022-11-05T05:10:12.122Z,81.21
2022-11-05T05:12:38.529Z,79.50
2022-11-05T05:15:05.593Z,80.34
2022-11-05T05:17:32.009Z,80.22
2022-11-05T05:20:16.821Z,79.88
2022-11-05T05:22:43.357Z,80.64
2022-11-05T05:25:09.813Z,80.70
2022-11-05T05:27:36.346Z,80.69
2022-11-05T05:30:03.410Z,81.13
2022-11-05T05:32:29.816Z,81.35
2022-11-05T05:34:56.343Z,80.93
2022-11-05T05:37:22.826Z,81.83
2022-11-05T05:39:49.745Z,81.70
2022-11-05T05:42:16.309Z,81.42
2022-11-05T05:44:42.705Z,82.03
2022-11-05T05:47:09.296Z,81.94
2022-11-05T05:49:35.744Z,81.66
2022-11-05T05:52:02.263Z,81.30
2022-11-05T05:54:32.308Z,81.68
2022-11-05T05:57:00.789Z,81.24
2022-11-05T05:59:27.261Z,81.49
2022-11-05T06:01:53.825Z,80.79
2022-11-05T06:04:20.692Z,80.66
2022-11-05T06:06:47.143Z,79.96
2022-11-05T06:09:14.400Z,79.49
2022-11-05T06:11:41.244Z,81.23
2022-11-05T06:14:11.203Z,81.01
2022-11-05T06:16:38.958Z,81.14
2022-11-05T06:19:06.667Z,79.99
2022-11-05T06:21:33.371Z,81.33
2022-11-05T06:24:02.147Z,81.42
2022-11-05T06:26:29.263Z,81.12
2022-11-05T06:28:55.916Z,80.96
2022-11-05T06:31:22.509Z,80.84
2022-11-05T06:33:49.038Z,81.60
2022-11-05T06:36:17.937Z,81.93
2022-11-05T06:38:44.379Z,81.86
2022-11-05T06:41:11.068Z,82.26
2022-11-05T06:43:38.014Z,81.77
2022-11-05T06:46:04.839Z,81.41
2022-11-05T06:48:31.475Z,81.42
2022-11-05T06:50:57.894Z,81.73
2022-11-05T06:53:24.669Z,81.90
2022-11-05T06:55:51.237Z,80.85
2022-11-05T06:58:17.811Z,81.36
2022-11-05T07:00:45.180Z,81.02
2022-11-05T07:03:13.110Z,81.51
2022-11-05T07:05:49.191Z,81.28
2022-11-05T07:08:16.126Z,81.02
2022-11-05T07:10:42.735Z,80.67
2022-11-05T07:13:09.344Z,80.43
2022-11-05T07:15:36.886Z,80.65
2022-11-05T07:18:03.996Z,81.88
2022-11-05T07:20:33.827Z,82.00
2022-11-05T07:23:06.362Z,81.25
2022-11-05T07:25:33.423Z,80.82
2022-11-05T07:28:00.451Z,81.15
2022-11-05T07:30:27.741Z,80.31
2022-11-05T07:32:54.422Z,81.68
2022-11-05T07:35:21.131Z,81.29
2022-11-05T07:37:49.723Z,81.63
2022-11-05T07:40:18.613Z,80.52
2022-11-05T07:42:46.897Z,80.10
2022-11-05T07:45:13.788Z,82.06
2022-11-05T07:47:47.712Z,81.06
2022-11-05T07:50:15.973Z,80.60
2022-11-05T07:52:42.462Z,80.73
2022-11-05T07:55:09.851Z,80.64
2022-11-05T07:57:47.260Z,80.76
2022-11-05T08:00:17.305Z,80.98
2022-11-05T08:02:44.156Z,80.16
2022-11-05T08:05:10.711Z,80.49
2022-11-05T08:07:37.174Z,80.94
2022-11-05T08:10:04.249Z,81.50
2022-11-05T08:12:32.154Z,80.21
2022-11-05T08:14:58.663Z,80.91
2022-11-05T08:17:25.128Z,79.33
2022-11-05T08:19:51.567Z,78.78
2022-11-05T08:22:18.007Z,79.58
2022-11-05T08:24:44.423Z,78.74
2022-11-05T08:27:10.839Z,79.43
2022-11-05T08:29:37.219Z,79.13
2022-11-05T08:32:03.775Z,79.51
2022-11-05T08:34:30.162Z,79.85
2022-11-05T08:36:56.602Z,79.78
2022-11-05T08:39:23.068Z,80.31
2022-11-05T08:41:50.100Z,79.56
2022-11-05T08:44:17.063Z,80.18
2022-11-05T08:46:43.481Z,79.63
2022-11-05T08:49:10.029Z,79.66
2022-11-05T08:51:36.433Z,80.71
2022-11-05T08:54:02.897Z,80.23
2022-11-05T08:56:29.351Z,80.11
2022-11-05T08:58:55.808Z,81.28
2022-11-05T09:01:22.342Z,77.71
2022-11-05T09:03:52.037Z,78.54
2022-11-05T09:06:22.212Z,79.51
2022-11-05T09:08:48.774Z,80.15
2022-11-05T09:11:15.330Z,79.90
2022-11-05T09:13:41.937Z,80.83
2022-11-05T09:16:26.480Z,81.28
2022-11-05T09:18:53.068Z,80.95
2022-11-05T09:21:19.826Z,79.64
2022-11-05T09:23:46.764Z,79.79
2022-11-05T09:26:14.199Z,79.93
2022-11-05T09:28:40.671Z,80.19
2022-11-05T09:31:09.249Z,79.98
2022-11-05T09:33:37.427Z,79.57
2022-11-05T09:36:04.267Z,79.64
2022-11-05T09:38:32.767Z,79.41
2022-11-05T09:41:37.221Z,81.13
2022-11-05T09:44:11.172Z,79.07
2022-11-05T09:46:51.143Z,79.67
2022-11-05T09:49:25.555Z,80.19
2022-11-05T09:51:54.394Z,79.02
2022-11-05T09:54:24.829Z,79.92
2022-11-05T09:56:52.785Z,79.59
2022-11-05T09:59:24.620Z,79.53
2022-11-05T10:01:58.161Z,78.93
2022-11-05T10:04:27.283Z,79.59
2022-11-05T10:07:04.318Z,77.70
2022-11-05T10:09:45.202Z,77.93
2022-11-05T10:12:33.670Z,79.52
2022-11-05T10:15:20.740Z,77.88
2022-11-05T10:18:02.503Z,78.62
2022-11-05T10:20:33.489Z,78.99
2022-11-05T10:23:12.239Z,79.40
2022-11-05T10:25:43.913Z,78.02
2022-11-05T10:28:17.179Z,78.08
2022-11-05T10:30:46.688Z,77.48
2022-11-05T10:33:19.922Z,76.97
2022-11-05T10:35:52.348Z,77.21
2022-11-05T10:38:19.122Z,77.35
2022-11-05T10:41:02.487Z,76.44
2022-11-05T10:43:47.743Z,77.46
2022-11-05T10:46:33.814Z,77.06
2022-11-05T10:49:14.665Z,76.57
2022-11-05T10:51:43.768Z,76.49
2022-11-05T10:54:22.218Z,76.07
2022-11-05T10:56:49.479Z,75.04
2022-11-05T10:59:20.631Z,75.37
2022-11-05T11:01:47.260Z,75.41
2022-11-05T11:04:20.558Z,75.56
2022-11-05T11:06:52.652Z,74.86
2022-11-05T11:09:31.724Z,75.10
2022-11-05T11:12:07.471Z,75.60
2022-11-05T11:14:35.092Z,75.21
2022-11-05T11:17:27.805Z,75.11
2022-11-05T11:20:16.089Z,75.15
2022-11-05T11:22:42.693Z,74.77
2022-11-05T11:25:25.213Z,74.97
2022-11-05T11:27:53.005Z,75.04
2022-11-05T11:30:20.389Z,74.29
2022-11-05T11:32:49.255Z,73.38
2022-11-05T11:35:22.484Z,74.13
2022-11-05T11:37:52.026Z,74.20
2022-11-05T11:40:31.573Z,74.67
2022-11-05T11:43:03.050Z,73.88
2022-11-05T11:45:37.756Z,72.89
2022-11-05T11:48:06.512Z,72.21
2022-11-05T11:50:49.742Z,72.99
2022-11-05T11:53:28.902Z,72.92
2022-11-05T11:55:55.364Z,72.44
2022-11-05T11:58:37.387Z,72.48
2022-11-05T12:01:41.703Z,73.41
2022-11-05T12:04:45.158Z,71.95
2022-11-05T12:07:49.220Z,71.98
2022-11-05T12:10:34.354Z,71.50
2022-11-05T12:13:19.191Z,72.02
2022-11-05T12:16:13.828Z,71.11
2022-11-05T12:18:53.326Z,71.91
2022-11-05T12:21:48.080Z,72.73
2022-11-05T12:24:18.713Z,71.85
2022-11-05T12:27:15.306Z,71.78
2022-11-05T12:29:55.850Z,71.94
2022-11-05T12:32:22.346Z,70.96
2022-11-05T12:35:07.175Z,71.12
2022-11-05T12:37:51.900Z,71.23
2022-11-05T12:40:59.872Z,71.74
2022-11-05T12:43:52.955Z,70.92
2022-11-05T12:46:36.255Z,70.68
2022-11-05T12:49:10.727Z,70.65
2022-11-05T12:51:44.605Z,70.61
2022-11-05T12:54:28.394Z,71.09
2022-11-05T12:57:01.952Z,72.00
2022-11-05T12:59:36.196Z,71.22
2022-11-05T13:02:25.198Z,70.45
2022-11-05T13:05:39.612Z,70.38
2022-11-05T13:08:36.854Z,70.04
2022-11-05T13:11:12.060Z,70.29
2022-11-05T13:13:43.877Z,70.41
2022-11-05T13:16:14.349Z,69.90
2022-11-05T13:19:39.181Z,69.85
2022-11-05T13:22:20.887Z,69.78
2022-11-05T13:24:54.965Z,70.18
2022-11-05T13:27:43.753Z,70.73
2022-11-05T13:30:17.774Z,71.04
2022-11-05T13:32:55.264Z,71.47
2022-11-05T13:35:42.046Z,71.74
2022-11-05T13:38:36.689Z,72.24
2022-11-05T13:41:16.864Z,72.48
2022-11-05T13:43:46.328Z,71.34
2022-11-05T13:46:37.008Z,71.04
2022-11-05T13:49:06.722Z,70.28
2022-11-05T13:52:03.595Z,69.93
2022-11-05T13:54:39.055Z,69.43
2022-11-05T13:57:42.445Z,69.36
2022-11-05T14:00:09.059Z,69.62
2022-11-05T14:02:41.140Z,69.52
2022-11-05T14:05:19.805Z,69.79
2022-11-05T14:07:47.852Z,70.08
2022-11-05T14:10:38.601Z,70.58
2022-11-05T14:13:20.239Z,70.58
2022-11-05T14:16:01.976Z,70.92
2022-11-05T14:18:34.315Z,71.10
2022-11-05T14:21:03.197Z,71.79
2022-11-05T14:23:49.482Z,72.11
2022-11-05T14:26:20.944Z,71.62
2022-11-05T14:29:12.122Z,71.96
2022-11-05T14:34:44.736Z,71.50
2022-11-05T14:37:11.283Z,71.39
2022-11-05T14:39:39.016Z,71.78
2022-11-05T14:42:14.860Z,71.88
2022-11-05T14:45:00.178Z,71.44
2022-11-05T14:47:31.427Z,72.22
2022-11-05T14:50:01.096Z,72.17
2022-11-05T14:52:28.191Z,72.38
2022-11-05T14:54:56.813Z,72.41
2022-11-05T14:57:47.214Z,73.58
2022-11-05T15:00:29.149Z,73.71
2022-11-05T15:03:02.808Z,74.26
2022-11-05T15:05:39.456Z,73.73
2022-11-05T15:08:36.707Z,73.86
2022-11-05T15:11:21.372Z,74.74
2022-11-05T15:14:02.883Z,75.31
2022-11-05T15:16:47.688Z,74.62
2022-11-05T15:19:29.132Z,75.00
2022-11-05T15:21:58.987Z,74.85
2022-11-05T15:24:30.696Z,74.44
2022-11-05T15:27:04.417Z,74.94
2022-11-05T15:29:32.963Z,74.65
2022-11-05T15:31:59.883Z,75.88
2022-11-05T15:34:35.807Z,75.42
2022-11-05T15:37:20.363Z,76.12
2022-11-05T15:39:48.809Z,77.03
2022-11-05T15:42:25.411Z,77.22
2022-11-05T15:44:59.764Z,75.58
2022-11-05T15:47:27.452Z,76.20
2022-11-05T15:49:59.812Z,75.63
2022-11-05T15:52:36.545Z,76.39
2022-11-05T15:55:14.476Z,76.22
2022-11-05T15:57:50.233Z,76.03
2022-11-05T16:00:20.493Z,76.91
2022-11-05T16:02:54.935Z,77.38
2022-11-05T16:05:22.141Z,77.83
2022-11-05T16:07:49.109Z,76.74
2022-11-05T16:10:29.111Z,77.06
2022-11-05T16:12:56.084Z,77.59
2022-11-05T16:15:32.515Z,77.80
2022-11-05T16:17:59.956Z,77.76
2022-11-05T16:20:38.487Z,76.98
2022-11-05T16:23:21.723Z,78.76
2022-11-05T16:25:48.259Z,78.32
2022-11-05T16:28:23.926Z,77.61
2022-11-05T16:30:53.375Z,78.60
2022-11-05T16:33:20.198Z,78.20
2022-11-05T16:35:49.066Z,78.13
2022-11-05T16:38:17.122Z,76.75
2022-11-05T16:40:43.671Z,77.95
2022-11-05T16:43:17.335Z,76.77
2022-11-05T16:45:44.075Z,77.92
2022-11-05T16:48:12.178Z,78.43
2022-11-05T16:50:39.078Z,76.62
2022-11-05T16:53:05.579Z,77.04
2022-11-05T16:55:33.201Z,78.13
2022-11-05T16:58:00.367Z,76.93
2022-11-05T17:00:26.813Z,77.32
2022-11-05T17:02:53.580Z,77.87
2022-11-05T17:05:30.439Z,76.90
2022-11-05T17:07:57.703Z,78.44
2022-11-05T17:10:25.509Z,76.98
2022-11-05T17:12:52.282Z,77.02
2022-11-05T17:15:24.576Z,78.16
2022-11-05T17:17:52.291Z,77.11
2022-11-05T17:20:32.527Z,78.16
2022-11-05T17:23:03.899Z,78.53
2022-11-05T17:25:30.896Z,77.52
2022-11-05T17:27:57.855Z,78.04
2022-11-05T17:30:24.666Z,78.19
2022-11-05T17:32:51.484Z,77.11
2022-11-05T17:35:18.007Z,77.60
2022-11-05T17:37:44.694Z,77.64
2022-11-05T17:40:17.471Z,78.36
2022-11-05T17:42:44.364Z,77.91
2022-11-05T17:45:12.691Z,77.75
2022-11-05T17:47:40.465Z,78.81
2022-11-05T17:50:08.633Z,77.96
2022-11-05T17:52:35.310Z,78.41
2022-11-05T17:55:03.787Z,78.54
2022-11-05T17:57:30.218Z,79.05
2022-11-05T17:59:56.671Z,78.50
2022-11-05T18:02:23.271Z,77.79
2022-11-05T18:04:49.772Z,78.64
2022-11-05T18:07:16.863Z,77.90
2022-11-05T18:09:43.343Z,78.21
2022-11-05T18:12:10.197Z,78.64
2022-11-05T18:14:36.736Z,78.60
2022-11-05T18:17:03.399Z,77.72
2022-11-05T18:19:30.014Z,78.00
2022-11-05T18:21:56.440Z,77.86
2022-11-05T18:24:23.050Z,78.40
2022-11-05T18:26:50.387Z,78.51
2022-11-05T18:29:16.875Z,78.75
2022-11-05T18:31:43.414Z,77.82
2022-11-05T18:34:10.351Z,78.56
2022-11-05T18:36:36.886Z,78.96
2022-11-05T18:39:04.853Z,78.82
2022-11-05T18:41:31.968Z,78.47
2022-11-05T18:44:02.819Z,78.94
2022-11-05T18:46:56.558Z,79.19
2022-11-05T18:49:17.980Z,78.42
2022-11-05T18:51:44.605Z,78.30
2022-11-05T18:54:11.082Z,77.37
2022-11-05T18:56:39.423Z,77.89
2022-11-05T18:59:34.729Z,77.96
2022-11-05T19:01:53.126Z,77.87
2022-11-05T19:04:19.714Z,77.16
2022-11-05T19:06:46.204Z,77.61
2022-11-05T19:09:13.110Z,77.64
2022-11-05T19:11:39.922Z,76.53
2022-11-05T19:14:07.151Z,76.93
2022-11-05T19:16:34.230Z,77.87
2022-11-05T19:19:04.878Z,77.73
2022-11-05T19:21:31.831Z,77.52
2022-11-05T19:24:01.389Z,77.73
2022-11-05T19:26:29.139Z,77.78
2022-11-05T19:28:58.702Z,77.87
2022-11-05T19:31:25.903Z,77.97
2022-11-05T19:33:53.658Z,77.97
2022-11-05T19:36:21.716Z,77.89
2022-11-05T19:38:49.621Z,77.80
2022-11-05T19:41:18.272Z,77.46
2022-11-05T19:43:45.455Z,77.71
2022-11-05T19:46:15.884Z,77.69
2022-11-05T19:48:43.650Z,77.51
2022-11-05T19:51:19.445Z,77.65
2022-11-05T19:53:46.288Z,77.97
2022-11-05T19:56:15.837Z,78.22
2022-11-05T19:58:43.049Z,77.86
2022-11-05T20:01:10.886Z,77.80
2022-11-05T20:03:37.788Z,78.01
2022-11-05T20:06:10.253Z,78.02
2022-11-05T20:08:53.484Z,77.83
2022-11-05T20:11:24.478Z,77.14
2022-11-05T20:13:50.965Z,77.60
2022-11-05T20:16:38.074Z,78.25
2022-11-05T20:19:11.032Z,78.62
2022-11-05T20:21:38.270Z,78.05
2022-11-05T20:24:05.292Z,78.32
2022-11-05T20:26:31.846Z,78.38
2022-11-05T20:28:58.550Z,78.64
2022-11-05T20:31:25.081Z,78.23
2022-11-05T20:33:52.030Z,77.59
2022-11-05T20:36:22.159Z,77.66
2022-11-05T20:38:50.155Z,78.05
2022-11-05T20:41:17.425Z,77.69
2022-11-05T20:43:44.159Z,78.06
2022-11-05T20:46:14.037Z,77.70
2022-11-05T20:48:40.801Z,77.60
2022-11-05T20:51:10.399Z,77.84
2022-11-05T20:53:37.949Z,77.35
2022-11-05T20:56:08.445Z,77.33
2022-11-05T20:58:36.871Z,77.23
2022-11-05T21:01:05.198Z,76.97
2022-11-05T21:03:31.931Z,76.93
2022-11-05T21:05:59.948Z,76.90
2022-11-05T21:08:27.887Z,76.87
2022-11-05T21:10:55.347Z,77.44
2022-11-05T21:13:22.837Z,77.58
2022-11-05T21:15:54.631Z,77.57
2022-11-05T21:18:23.762Z,77.05
2022-11-05T21:20:50.541Z,77.69
2022-11-05T21:23:17.489Z,77.04
2022-11-05T21:25:44.551Z,77.46
2022-11-05T21:28:13.336Z,78.22
2022-11-05T21:30:44.915Z,77.78
2022-11-05T21:33:13.077Z,78.29
2022-11-05T21:35:41.408Z,78.17
2022-11-05T21:38:07.930Z,78.26
2022-11-05T21:40:34.465Z,78.70
2022-11-05T21:43:00.910Z,78.66
2022-11-05T21:45:27.363Z,79.00
2022-11-05T21:47:53.779Z,78.85
2022-11-05T21:50:40.208Z,78.70
2022-11-05T21:53:27.228Z,78.52
2022-11-05T21:56:12.019Z,78.73
2022-11-05T21:58:56.708Z,78.38
2022-11-05T22:01:23.245Z,78.29
2022-11-05T22:03:49.851Z,78.72
2022-11-05T22:06:16.412Z,78.46
2022-11-05T22:08:42.895Z,79.12
2022-11-05T22:11:09.396Z,78.95
2022-11-05T22:13:35.871Z,78.52
2022-11-05T22:16:02.357Z,78.24
2022-11-05T22:18:28.827Z,79.07
2022-11-05T22:20:55.226Z,77.78
2022-11-05T22:23:21.906Z,78.14
2022-11-05T22:25:48.577Z,78.72
2022-11-05T22:28:15.235Z,78.60
2022-11-05T22:30:41.965Z,78.43
2022-11-05T22:33:08.408Z,78.78
2022-11-05T22:35:34.874Z,78.18
2022-11-05T22:38:01.398Z,78.37
2022-11-05T22:40:27.965Z,78.70
2022-11-05T22:42:54.479Z,78.80
2022-11-05T22:45:20.989Z,77.87
2022-11-05T22:47:47.411Z,78.17
2022-11-05T22:50:13.964Z,78.92
2022-11-05T22:52:40.507Z,78.97
2022-11-05T22:55:07.447Z,77.88
2022-11-05T22:57:33.907Z,77.33
2022-11-05T23:00:00.739Z,77.62
2022-11-05T23:02:27.273Z,77.42
2022-11-05T23:04:53.929Z,77.34
2022-11-05T23:07:38.936Z,78.49
2022-11-05T23:10:24.530Z,77.21
2022-11-05T23:12:53.135Z,78.02
2022-11-05T23:15:38.618Z,77.49
2022-11-05T23:18:23.596Z,77.88
2022-11-05T23:21:08.343Z,77.88
2022-11-05T23:23:53.094Z,77.45
2022-11-05T23:26:37.948Z,77.25
2022-11-05T23:29:04.623Z,77.86
2022-11-05T23:31:49.384Z,77.45
2022-11-05T23:34:15.826Z,78.37
2022-11-05T23:37:00.919Z,77.51
2022-11-05T23:39:27.320Z,78.11
2022-11-05T23:42:12.050Z,77.75
2022-11-05T23:44:57.074Z,77.36
2022-11-05T23:47:41.860Z,78.36
2022-11-05T23:50:08.731Z,78.09
2022-11-05T23:52:35.304Z,76.79
2022-11-05T23:55:01.734Z,77.92
2022-11-05T23:57:28.181Z,77.68
2022-11-05T23:59:54.650Z,77.83
